Time;durP1;ratioP1;P1;durP2;ratioP2;P2;SDS_P1;SDS_P2;PMS_P1;PMS_P2;Temp;Humidity;BMP_temperature;BMP_pressure;BME280_temperature;BME280_humidity;BME280_pressure;Samples;Min_cycle;Max_cycle;Signal;HPM_P1;HPM_P2
2022/09/21 00:00:41;;;;;;;12.65;6.05;;;;;;;7.15;75.73;99943.69;4855738;29;20081;-83
2022/09/21 00:03:08;;;;;;;12.40;6.50;;;;;;;7.06;75.71;99919.47;4857767;29;20069;-82
2022/09/21 00:05:34;;;;;;;14.25;5.95;;;;;;;7.00;75.91;99908.22;4867481;29;20580;-83
2022/09/21 00:08:02;;;;;;;11.05;6.22;;;;;;;7.17;75.99;99934.22;4873054;29;20124;-84
2022/09/21 00:10:29;;;;;;;9.95;5.85;;;;;;;7.05;75.65;99912.59;4873565;29;20041;-83
2022/09/21 00:12:57;;;;;;;10.95;5.93;;;;;;;6.92;75.42;99890.06;4871200;29;20045;-83
2022/09/21 00:15:25;;;;;;;11.70;6.05;;;;;;;7.14;75.55;99927.31;4871110;29;20502;-83
2022/09/21 00:17:55;;;;;;;15.88;9.20;;;;;;;6.84;75.87;99889.16;4877950;29;20870;-84
2022/09/21 00:20:23;;;;;;;23.50;13.23;;;;;;;6.85;75.67;99893.44;4872666;29;20104;-82
2022/09/21 00:22:50;;;;;;;13.60;9.02;;;;;;;7.02;75.46;99916.84;4855237;29;20061;-83
2022/09/21 00:25:18;;;;;;;12.98;8.10;;;;;;;7.10;75.34;99930.72;4870592;29;20049;-82
2022/09/21 00:27:46;;;;;;;19.67;7.60;;;;;;;7.00;75.34;99921.16;4867262;29;20072;-84
2022/09/21 00:30:12;;;;;;;12.30;6.82;;;;;;;6.65;75.11;99875.19;4872272;29;20565;-83
2022/09/21 00:32:38;;;;;;;14.65;6.95;;;;;;;7.03;75.38;99942.75;4875544;29;20037;-84
2022/09/21 00:35:06;;;;;;;13.77;7.47;;;;;;;6.78;75.28;99902.88;4870800;29;20045;-81
2022/09/21 00:37:33;;;;;;;16.60;7.05;;;;;;;6.98;74.87;99930.63;4875090;29;20041;-85
2022/09/21 00:39:59;;;;;;;11.05;6.70;;;;;;;6.82;75.32;99908.97;4853694;29;20390;-82
2022/09/21 00:42:29;;;;;;;14.82;6.97;;;;;;;7.06;75.05;99947.09;4869241;29;20099;-81
2022/09/21 00:44:55;;;;;;;21.38;7.85;;;;;;;6.70;75.12;99886.44;4870418;29;20068;-82
2022/09/21 00:47:38;;;;;;;12.20;7.65;;;;;;;6.73;75.17;99891.66;4868839;29;20041;-84
2022/09/21 00:50:10;;;;;;;14.50;7.47;;;;;;;6.89;75.24;99926.25;4870119;29;20041;-82
2022/09/21 00:52:42;;;;;;;11.85;7.38;;;;;;;7.01;75.37;99947.06;4853173;29;20113;-82
2022/09/21 00:55:11;;;;;;;22.00;7.03;;;;;;;6.79;75.04;99904.59;4869725;29;20096;-82
2022/09/21 00:57:37;;;;;;;16.30;6.57;;;;;;;6.76;75.12;99900.28;4869242;29;20045;-84
2022/09/21 01:00:09;;;;;;;11.75;6.70;;;;;;;6.64;74.91;99874.31;4870399;29;20093;-82
2022/09/21 01:02:37;;;;;;;10.65;6.82;;;;;;;7.05;75.13;99938.47;4870842;29;20136;-83
2022/09/21 01:05:08;;;;;;;16.05;6.63;;;;;;;6.71;74.80;99883.00;4869288;29;20092;-81
2022/09/21 01:07:41;;;;;;;20.15;7.60;;;;;;;6.77;75.00;99896.84;4872625;29;20061;-83
2022/09/21 01:10:11;;;;;;;11.73;7.30;;;;;;;7.02;74.92;99947.91;4868815;29;20041;-84
2022/09/21 01:13:08;;;;;;;21.17;6.95;;;;;;;7.01;74.70;99943.59;4880885;29;20040;-84
2022/09/21 01:15:44;;;;;;;17.85;7.05;;;;;;;6.95;74.80;99939.22;4884134;29;20045;-82
2022/09/21 01:18:25;;;;;;;23.63;10.43;;;;;;;6.74;74.82;99909.75;4838253;29;20171;-84
2022/09/21 01:21:29;;;;;;;14.13;6.78;;;;;;;6.96;75.22;99937.50;4874040;29;20044;-83
2022/09/21 01:23:58;;;;;;;14.32;6.30;;;;;;;6.96;74.71;99930.63;4873851;29;20048;-83
2022/09/21 01:26:27;;;;;;;11.80;6.38;;;;;;;6.95;74.78;99938.38;4882776;29;20053;-83
2022/09/21 01:29:02;;;;;;;10.23;6.28;;;;;;;6.97;74.90;99939.22;4883269;29;20124;-81
2022/09/21 01:31:39;;;;;;;24.63;12.38;;;;;;;6.79;74.69;99909.78;4869787;29;20056;-84
2022/09/21 01:34:18;;;;;;;16.08;8.05;;;;;;;6.70;74.74;99884.72;4867432;29;20041;-84
2022/09/21 01:36:51;;;;;;;12.95;7.65;;;;;;;6.88;75.01;99909.88;4870884;29;20049;-83
2022/09/21 01:39:20;;;;;;;10.43;6.00;;;;;;;6.95;74.76;99926.28;4864439;29;20102;-81
2022/09/21 01:41:49;;;;;;;14.68;7.50;;;;;;;6.95;75.08;99912.50;4865386;29;20048;-85
2022/09/21 01:44:20;;;;;;;14.20;5.90;;;;;;;7.15;74.57;99942.00;4867613;29;20502;-86
2022/09/21 01:46:47;;;;;;;15.70;6.78;;;;;;;7.15;74.61;99934.22;4855851;29;20049;-86
2022/09/21 01:49:29;;;;;;;14.82;6.50;;;;;;;7.21;74.57;99936.84;4868013;29;20125;-83
2022/09/21 01:52:01;;;;;;;10.52;6.00;;;;;;;7.12;74.85;99918.69;4869330;29;20080;-85
2022/09/21 01:54:36;;;;;;;16.23;6.38;;;;;;;7.07;74.45;99921.19;4871443;29;20161;-84
2022/09/21 01:57:13;;;;;;;15.90;7.10;;;;;;;7.17;74.51;99922.13;4860605;29;20509;-83
2022/09/21 01:59:42;;;;;;;10.63;7.05;;;;;;;7.19;74.25;99935.94;4876420;29;20118;-84
2022/09/21 02:02:14;;;;;;;17.10;6.63;;;;;;;7.28;74.48;99939.47;4880585;29;20048;-82
2022/09/21 02:04:40;;;;;;;13.75;6.35;;;;;;;7.21;74.80;99933.41;4899936;29;20049;-82
2022/09/21 02:07:07;;;;;;;11.48;6.95;;;;;;;7.37;74.60;99939.56;4884797;29;20053;-82
2022/09/21 02:09:36;;;;;;;15.32;8.13;;;;;;;7.42;74.56;99947.34;4863424;29;20061;-81
2022/09/21 02:12:03;;;;;;;12.25;6.80;;;;;;;7.45;74.44;99948.22;4883406;29;20082;-82
2022/09/21 02:14:32;;;;;;;8.90;6.50;;;;;;;7.23;74.34;99904.06;4877212;29;20068;-86
2022/09/21 02:17:24;;;;;;;8.70;5.72;;;;;;;7.51;74.30;99942.19;4874880;29;20037;-81
2022/09/21 02:20:08;;;;;;;8.57;5.57;;;;;;;7.38;74.51;99921.44;4870007;29;20669;-85
2022/09/21 02:23:05;;;;;;;14.85;7.18;;;;;;;7.49;74.33;99926.66;4863387;29;20053;-84
2022/09/21 02:25:39;;;;;;;14.10;7.05;;;;;;;7.67;74.32;99943.16;4875780;29;20049;-82
2022/09/21 02:28:15;;;;;;;25.65;10.20;;;;;;;7.60;74.52;99926.72;4871507;29;20068;-83
2022/09/21 02:30:51;;;;;;;14.00;7.60;;;;;;;7.59;73.90;99924.13;4871912;29;20389;-80
2022/09/21 02:33:33;;;;;;;19.77;7.07;;;;;;;7.49;74.25;99907.69;4871551;29;20041;-81
2022/09/21 02:36:20;;;;;;;16.60;7.38;;;;;;;7.82;73.99;99953.63;4856119;29;20049;-85
2022/09/21 02:38:52;;;;;;;21.85;8.02;;;;;;;7.76;74.16;99938.03;4870773;29;20053;-83
2022/09/21 02:41:25;;;;;;;23.17;8.18;;;;;;;7.59;74.08;99891.31;4874526;29;20109;-84
2022/09/21 02:43:57;;;;;;;21.42;7.30;;;;;;;7.79;74.04;99926.81;4874167;29;20044;-85
2022/09/21 02:46:38;;;;;;;21.15;6.95;;;;;;;7.98;73.69;99943.31;4876869;29;20037;-85
2022/09/21 02:49:13;;;;;;;25.42;7.50;;;;;;;7.84;73.79;99919.94;4879647;29;20045;-86
2022/09/21 02:51:46;;;;;;;32.97;7.55;;;;;;;7.77;73.75;99897.44;4888116;29;20042;-83
2022/09/21 02:54:16;;;;;;;24.17;7.05;;;;;;;8.10;73.64;99938.16;4874169;29;20139;-83
2022/09/21 02:56:45;;;;;;;26.83;7.10;;;;;;;8.03;73.36;99926.06;4884939;29;20133;-84
2022/09/21 02:59:12;;;;;;;21.95;6.95;;;;;;;7.87;73.40;99885.38;4858163;29;20051;-84
2022/09/21 03:01:40;;;;;;;17.55;6.85;;;;;;;7.96;73.40;99898.38;4857747;29;20177;-82
2022/09/21 03:04:06;;;;;;;17.77;6.75;;;;;;;8.14;73.21;99926.09;4878561;29;20068;-84
2022/09/21 03:06:33;;;;;;;20.67;7.03;;;;;;;8.10;73.47;99924.34;4876917;29;20041;-83
2022/09/21 03:08:59;;;;;;;17.02;7.20;;;;;;;8.17;73.08;99918.31;4877016;29;20052;-85
2022/09/21 03:11:28;;;;;;;16.23;6.97;;;;;;;8.25;73.27;99918.34;4873443;29;20048;-82
2022/09/21 03:13:58;;;;;;;16.25;6.90;;;;;;;8.10;73.57;99880.28;4875718;29;20049;-86
2022/09/21 03:16:27;;;;;;;13.50;7.25;;;;;;;8.14;72.93;99898.44;4906340;29;20057;-84
2022/09/21 03:19:11;;;;;;;15.07;7.68;;;;;;;8.06;73.29;99879.41;4905034;29;20123;-85
2022/09/21 03:21:53;;;;;;;15.48;7.70;;;;;;;8.13;73.10;99873.38;4893778;29;20082;-85
2022/09/21 03:27:33;;;;;;;17.67;7.22;;;;;;;8.20;72.94;99882.03;4894480;29;20049;-86
2022/09/21 03:30:01;;;;;;;15.40;7.95;;;;;;;7.99;72.87;99838.78;4878679;29;20037;-87
2022/09/21 03:32:39;;;;;;;16.95;8.55;;;;;;;8.23;73.09;99869.06;4894345;29;20060;-86
2022/09/21 03:35:08;;;;;;;16.15;9.35;;;;;;;8.18;72.99;99846.59;4881253;29;20029;-83
2022/09/21 03:37:37;;;;;;;20.35;8.27;;;;;;;8.37;73.29;99879.47;4878384;29;20052;-86
2022/09/21 03:40:04;;;;;;;15.02;8.63;;;;;;;8.74;72.81;99928.81;4877585;29;20041;-85
2022/09/21 03:42:33;;;;;;;18.10;7.05;;;;;;;8.83;73.11;99933.13;4883635;29;20064;-85
2022/09/21 03:44:59;;;;;;;14.20;7.43;;;;;;;8.12;72.78;99812.03;4881583;29;20044;-85
2022/09/21 03:47:31;;;;;;;14.30;8.10;;;;;;;8.93;72.94;99930.56;4874496;29;20033;-83
2022/09/21 03:49:57;;;;;;;21.13;8.60;;;;;;;8.33;72.94;99820.69;4903845;29;20101;-85
2022/09/21 03:52:27;;;;;;;17.40;9.30;;;;;;;8.95;73.03;99919.31;4890831;29;20045;-83
2022/09/21 03:54:59;;;;;;;13.23;8.02;;;;;;;8.86;72.72;99891.63;4862963;29;20045;-85
2022/09/21 03:57:29;;;;;;;18.20;7.85;;;;;;;8.85;72.79;99883.84;4875947;29;20112;-84
2022/09/21 03:59:55;;;;;;;17.40;8.30;;;;;;;9.09;72.73;99918.44;4877353;29;20100;-84
2022/09/21 04:02:57;;;;;;;19.88;7.57;;;;;;;9.04;72.74;99893.34;4927473;23;20034;-83
2022/09/21 04:10:16;;;;;;;16.40;8.00;;;;;;;9.31;72.86;99903.69;4882555;29;20424;-87
2022/09/21 04:12:54;;;;;;;16.35;8.32;;;;;;;9.52;72.46;99902.78;4888053;29;20061;-87
2022/09/21 04:15:30;;;;;;;13.45;7.55;;;;;;;9.31;72.55;99862.13;4856804;29;20075;-87
2022/09/21 04:18:05;;;;;;;14.10;8.00;;;;;;;9.37;72.82;99864.72;4882987;29;20040;-85
2022/09/21 04:28:11;;;;;;;15.88;7.70;;;;;;;10.08;71.87;99869.63;4865693;29;20096;-87
2022/09/21 04:30:51;;;;;;;15.15;7.65;;;;;;;10.47;72.04;99890.22;4883418;29;20131;-86
2022/09/21 04:33:18;;;;;;;20.05;8.43;;;;;;;10.94;71.36;99927.16;4862615;29;20418;-88
2022/09/21 04:35:54;;;;;;;16.38;7.65;;;;;;;11.15;71.60;99904.41;4880085;29;20132;-88
2022/09/21 04:38:21;;;;;;;19.73;7.10;;;;;;;11.21;71.39;99869.63;4847717;29;20083;-82
2022/09/21 04:40:57;;;;;;;17.15;7.93;;;;;;;11.39;71.01;99859.00;4881787;29;20043;-88
2022/09/21 04:43:24;;;;;;;19.80;7.80;;;;;;;11.80;70.46;99889.81;4878924;29;20079;-87
2022/09/21 04:46:30;;;;;;;15.85;7.88;;;;;;;11.84;70.20;99834.13;4876842;29;20056;-85
2022/09/21 04:48:59;;;;;;;18.25;10.38;;;;;;;12.20;69.89;99845.81;4840393;29;20085;-85
2022/09/21 04:51:25;;;;;;;19.15;11.73;;;;;;;12.89;69.42;99905.66;4880624;29;20072;-86
2022/09/21 04:54:10;;;;;;;19.67;10.93;;;;;;;13.39;68.72;99910.88;4903728;29;20056;-88
2022/09/21 04:56:39;;;;;;;20.67;9.90;;;;;;;14.52;69.00;99857.06;4882934;29;20049;-86
2022/09/21 04:59:05;;;;;;;13.85;9.52;;;;;;;16.52;67.67;99925.91;4904960;29;20044;-86
2022/09/21 05:01:47;;;;;;;12.70;7.82;;;;;;;17.16;65.03;99877.41;4908570;29;20163;-86
2022/09/21 05:04:17;;;;;;;14.50;8.48;;;;;;;17.55;63.30;99897.06;4874014;29;20061;-88
2022/09/21 05:06:45;;;;;;;15.20;8.40;;;;;;;17.97;62.12;99885.03;4860511;29;20045;-85
2022/09/21 05:12:20;;;;;;;;;;;;;;;;;;;;;
2022/09/21 05:14:50;;;;;;;10.25;7.78;;;;;;;21.71;55.98;99891.91;4858572;29;20045;-86
2022/09/21 05:22:11;;;;;;;;;;;;;;;;;;;;;
2022/09/21 05:49:10;;;;;;;8.65;7.22;;;;;;;19.69;51.43;99891.13;4838611;29;20077;-87
2022/09/21 05:52:02;;;;;;;11.90;7.70;;;;;;;19.42;51.82;99890.59;4827414;29;20049;-85
2022/09/21 05:54:56;;;;;;;10.20;8.02;;;;;;;19.43;51.78;99894.94;4857456;29;20045;-88
2022/09/21 05:58:06;;;;;;;11.60;7.35;;;;;;;20.17;52.21;99883.69;4870211;29;20124;-86
2022/09/21 06:01:27;;;;;;;10.55;7.55;;;;;;;21.66;51.04;99886.00;4855689;29;20096;-89
2022/09/21 06:04:02;;;;;;;15.82;12.80;;;;;;;21.92;49.58;99817.50;4841557;29;20060;-87
2022/09/21 06:06:44;;;;;;;13.50;11.15;;;;;;;22.25;48.05;99829.81;4840150;29;21067;-86
2022/09/21 06:09:11;;;;;;;8.82;7.05;;;;;;;22.71;47.71;99835.13;4865746;29;20144;-85
2022/09/21 06:11:49;;;;;;;10.80;7.55;;;;;;;23.27;47.69;99868.97;4881181;29;20070;-88
2022/09/21 06:14:28;;;;;;;11.90;7.45;;;;;;;23.00;46.08;99807.78;4879153;29;20041;-88
2022/09/21 06:17:01;;;;;;;10.30;6.70;;;;;;;22.98;45.79;99821.13;4878922;29;20044;-87
2022/09/21 06:19:34;;;;;;;10.75;6.65;;;;;;;23.08;45.78;99853.25;4861828;29;20395;-84
2022/09/21 06:22:08;;;;;;;8.25;5.72;;;;;;;23.00;45.39;99856.38;4843259;29;20050;-88
2022/09/21 06:24:37;;;;;;;12.02;6.28;;;;;;;22.80;44.85;99864.66;4856763;29;20041;-85
2022/09/21 06:27:12;;;;;;;15.95;7.28;;;;;;;22.46;44.16;99830.38;4858073;29;20230;-85
2022/09/21 06:29:48;;;;;;;18.83;8.00;;;;;;;21.87;44.71;99848.69;4859233;29;20041;-85
2022/09/21 06:32:25;;;;;;;15.27;7.65;;;;;;;22.32;45.38;99904.50;4868840;29;20049;-86
2022/09/21 06:34:55;;;;;;;16.15;8.27;;;;;;;21.85;45.51;99840.00;4846167;29;20110;-84
2022/09/21 06:37:22;;;;;;;16.48;8.60;;;;;;;21.89;45.38;99826.50;4856951;29;20056;-85
2022/09/21 06:39:53;;;;;;;12.43;7.00;;;;;;;22.40;44.88;99881.06;4872797;29;20045;-85
2022/09/21 06:42:20;;;;;;;9.10;6.63;;;;;;;22.14;44.18;99899.31;4855214;29;20106;-82
2022/09/21 06:44:45;;;;;;;9.75;7.00;;;;;;;21.01;43.45;99854.94;4859042;29;20045;-83
2022/09/21 06:47:16;;;;;;;10.50;6.78;;;;;;;20.39;44.16;99826.28;4865951;29;20037;-86
2022/09/21 06:50:01;;;;;;;9.18;7.00;;;;;;;20.53;46.63;99844.97;4850013;29;20048;-87
2022/09/21 06:52:39;;;;;;;13.77;7.25;;;;;;;20.20;46.58;99828.97;4858331;29;20041;-86
2022/09/21 06:55:19;;;;;;;12.15;7.93;;;;;;;20.59;45.89;99907.25;4866360;29;20057;-86
2022/09/21 06:57:58;;;;;;;16.98;8.20;;;;;;;20.65;46.46;99903.44;4849472;29;20586;-84
2022/09/21 07:00:34;;;;;;;9.60;7.38;;;;;;;20.57;47.15;99840.41;4837296;29;20056;-87
2022/09/21 07:03:35;;;;;;;12.57;8.00;;;;;;;20.97;46.72;99901.88;4867885;29;20038;-86
2022/09/21 07:06:14;;;;;;;14.05;9.38;;;;;;;20.31;47.14;99831.97;4884802;29;20040;-83
2022/09/21 07:08:52;;;;;;;11.50;8.60;;;;;;;20.75;46.63;99891.47;4852675;29;20045;-86
2022/09/21 07:12:03;;;;;;;13.70;8.23;;;;;;;19.88;47.19;99860.44;4847056;29;20041;-85
2022/09/21 07:15:09;;;;;;;13.50;8.70;;;;;;;19.32;47.56;99825.97;4824795;29;20658;-88
2022/09/21 07:18:27;;;;;;;10.73;8.18;;;;;;;19.09;47.92;99857.72;4838836;29;20060;-85
2022/09/21 07:21:28;;;;;;;13.55;8.38;;;;;;;19.15;48.01;99897.94;4842090;29;20057;-83
2022/09/21 07:24:33;;;;;;;13.50;8.43;;;;;;;18.25;49.19;99815.50;4856280;29;20071;-87
2022/09/21 07:27:31;;;;;;;11.43;7.50;;;;;;;18.01;48.88;99862.94;4858144;29;20053;-85
2022/09/21 07:29:58;;;;;;;16.38;8.10;;;;;;;17.96;49.72;99930.69;4885385;29;20472;-87
2022/09/21 07:32:30;;;;;;;13.57;7.85;;;;;;;17.42;50.73;99873.00;4863585;29;20046;-88
2022/09/21 07:34:56;;;;;;;10.98;7.03;;;;;;;17.27;51.02;99905.94;4856958;29;20405;-87
2022/09/21 07:37:26;;;;;;;14.13;7.57;;;;;;;16.47;51.89;99820.13;4897844;29;20083;-86
2022/09/21 07:40:04;;;;;;;8.73;6.60;;;;;;;16.64;52.24;99863.38;4865832;29;20077;-89
2022/09/21 07:42:34;;;;;;;9.95;6.35;;;;;;;16.71;52.67;99876.25;4863798;29;20498;-88
2022/09/21 07:45:00;;;;;;;10.20;7.15;;;;;;;16.70;52.06;99889.44;4877265;29;20053;-86
2022/09/21 07:47:26;;;;;;;13.82;7.10;;;;;;;16.30;53.56;99833.81;4868481;29;20067;-86
2022/09/21 07:50:00;;;;;;;11.05;7.47;;;;;;;16.56;53.77;99877.63;4879516;29;20046;-86
2022/09/21 08:00:39;;;;;;;10.65;6.40;;;;;;;16.40;55.17;99813.38;4864062;29;20053;-88
2022/09/21 08:03:11;;;;;;;14.65;6.43;;;;;;;17.11;54.69;99876.69;4850236;29;20045;-88
2022/09/21 08:05:37;;;;;;;11.48;6.78;;;;;;;17.42;53.96;99875.63;4860939;29;20036;-82
2022/09/21 08:08:52;;;;;;;12.73;6.40;;;;;;;17.60;53.51;99844.28;4840546;29;20041;-87
2022/09/21 08:12:02;;;;;;;7.82;5.95;;;;;;;19.52;53.69;99910.38;4846920;29;20045;-85
2022/09/21 08:15:24;;;;;;;10.88;6.25;;;;;;;19.60;51.31;99835.25;4842127;29;20458;-85
2022/09/21 08:17:51;;;;;;;12.68;6.43;;;;;;;19.65;49.60;99894.81;4812428;29;20052;-87
2022/09/21 08:20:18;;;;;;;10.68;6.30;;;;;;;19.45;50.95;99902.78;4846507;29;20728;-88
2022/09/21 08:22:59;;;;;;;11.35;5.97;;;;;;;20.00;51.06;99896.81;4857005;29;20613;-86
2022/09/21 08:25:35;;;;;;;11.02;6.20;;;;;;;20.07;50.20;99813.72;4843027;29;20049;-91
2022/09/21 08:28:48;;;;;;;10.98;6.47;;;;;;;20.72;47.60;99908.34;4855713;29;20041;-87
2022/09/21 08:35:04;;;;;;;10.60;6.68;;;;;;;20.15;48.97;99803.66;4868667;29;20060;-89
2022/09/21 08:38:04;;;;;;;8.27;6.00;;;;;;;21.82;48.97;99854.25;4861455;29;20557;-87
2022/09/21 08:40:41;;;;;;;8.93;6.20;;;;;;;22.27;46.63;99849.97;4856447;29;20057;-86
2022/09/21 08:43:12;;;;;;;7.53;6.00;;;;;;;23.07;46.56;99850.72;4868116;29;20144;-87
2022/09/21 08:45:46;;;;;;;7.25;5.43;;;;;;;23.11;44.66;99823.06;4879122;29;20041;-90
2022/09/21 08:48:29;;;;;;;6.05;5.05;;;;;;;23.66;44.71;99863.06;4849297;29;20089;-88
2022/09/21 08:51:05;;;;;;;6.63;5.03;;;;;;;23.76;43.97;99841.16;4848887;29;20041;-88
2022/09/21 08:53:40;;;;;;;6.70;4.72;;;;;;;24.48;43.76;99850.75;4868047;29;20048;-86
2022/09/21 08:56:10;;;;;;;8.13;5.00;;;;;;;24.86;43.13;99816.38;4875936;29;20055;-86
2022/09/21 08:58:39;;;;;;;7.47;4.80;;;;;;;25.03;41.94;99799.25;4884158;29;20057;-88
2022/09/21 09:01:29;;;;;;;6.38;4.28;;;;;;;25.26;41.43;99843.75;4858233;29;20041;-86
2022/09/21 09:04:10;;;;;;;5.60;3.88;;;;;;;25.44;41.24;99839.94;4885832;29;20060;-89
2022/09/21 09:06:54;;;;;;;6.63;3.65;;;;;;;24.65;41.12;99840.81;4888945;29;20124;-87
2022/09/21 09:09:40;;;;;;;4.00;3.03;;;;;;;24.82;41.56;99839.69;4873966;29;20056;-85
2022/09/21 09:12:35;;;;;;;4.57;2.90;;;;;;;25.56;39.73;99837.25;4865680;29;20185;-87
2022/09/21 09:15:09;;;;;;;4.43;3.35;;;;;;;25.90;36.57;99809.97;4868125;29;20037;-86
2022/09/21 09:17:55;;;;;;;6.07;3.50;;;;;;;25.13;38.54;99765.72;4877774;29;20078;-87
2022/09/21 09:20:37;;;;;;;5.57;2.72;;;;;;;24.89;38.43;99766.47;4849285;29;20502;-88
2022/09/21 09:23:24;;;;;;;4.32;2.90;;;;;;;24.69;39.36;99833.47;4877173;29;20542;-89
2022/09/21 09:26:00;;;;;;;3.13;2.60;;;;;;;24.18;38.90;99769.41;4860326;29;20043;-85
2022/09/21 09:28:40;;;;;;;4.28;2.50;;;;;;;24.21;38.64;99798.47;4876606;29;20129;-87
2022/09/21 09:31:27;;;;;;;4.85;3.78;;;;;;;24.45;39.12;99804.88;4874461;29;20092;-86
2022/09/21 09:34:19;;;;;;;3.70;3.05;;;;;;;24.40;39.61;99768.00;4854422;29;20049;-85
2022/09/21 09:36:51;;;;;;;6.13;3.05;;;;;;;24.26;39.55;99781.38;4857483;29;20069;-87
2022/09/21 09:39:18;;;;;;;4.05;2.70;;;;;;;24.74;38.59;99784.31;4838766;29;20046;-87
2022/09/21 09:42:13;;;;;;;3.78;3.10;;;;;;;25.19;38.37;99809.66;4862982;29;20224;-85
2022/09/21 09:44:58;;;;;;;3.85;3.25;;;;;;;24.73;38.64;99824.34;4853987;29;20136;-88
2022/09/21 09:47:49;;;;;;;4.57;3.05;;;;;;;24.69;38.11;99828.13;4857079;29;20129;-88
2022/09/21 09:50:28;;;;;;;4.40;2.90;;;;;;;24.32;38.69;99827.00;4841404;29;20064;-87
2022/09/21 09:53:06;;;;;;;3.92;2.30;;;;;;;23.37;38.67;99751.63;4839550;29;20049;-84
2022/09/21 09:55:38;;;;;;;3.33;2.35;;;;;;;23.41;39.03;99800.88;4866654;29;20074;-88
2022/09/21 09:58:34;;;;;;;3.10;2.50;;;;;;;22.80;39.82;99785.97;4865753;29;20049;-85
2022/09/21 10:01:00;;;;;;;3.17;2.75;;;;;;;22.41;40.27;99793.50;4865449;29;20430;-87
2022/09/21 10:03:27;;;;;;;4.45;2.75;;;;;;;22.07;40.54;99761.00;4858077;29;20136;-88
2022/09/21 10:09:54;;;;;;;;;;;;;;;21.27;40.50;99843.03;4859790;29;20052;-87
2022/09/21 10:12:26;;;;;;;4.55;3.10;;;;;;;20.76;43.29;99790.97;4848952;29;19920;-86
2022/09/21 10:15:16;;;;;;;5.97;2.97;;;;;;;21.14;42.27;99839.31;4856390;29;20079;-86
2022/09/21 10:18:00;;;;;;;5.35;3.45;;;;;;;20.52;43.04;99742.84;4856236;29;20065;-87
2022/09/21 10:20:31;;;;;;;3.50;3.05;;;;;;;20.92;43.41;99828.06;4860830;29;20045;-86
2022/09/21 10:23:02;;;;;;;4.82;2.97;;;;;;;20.32;43.55;99742.03;4876681;29;20045;-87
2022/09/21 10:30:18;;;;;;;;;;;;;;;;;;;;;
2022/09/21 10:33:19;;;;;;;4.38;3.20;;;;;;;19.52;44.49;99741.50;4838281;29;20072;-89
2022/09/21 10:36:46;;;;;;;4.32;3.00;;;;;;;19.90;45.61;99824.25;4820276;29;20056;-87
2022/09/21 10:48:08;;;;;;;4.82;3.17;;;;;;;18.96;47.05;99766.91;4827961;29;20116;-86
2022/09/21 10:50:52;;;;;;;6.15;3.28;;;;;;;18.61;46.62;99785.06;4830554;29;20058;-90
2022/09/21 10:53:38;;;;;;;5.40;3.30;;;;;;;18.24;46.51;99732.13;4878592;29;20071;-88
2022/09/21 10:56:50;;;;;;;5.53;3.40;;;;;;;18.36;47.44;99778.19;4867318;29;20109;-89
2022/09/21 10:59:36;;;;;;;5.70;2.75;;;;;;;18.49;47.31;99816.28;4870532;29;20048;-86
2022/09/21 11:02:41;;;;;;;6.53;2.88;;;;;;;17.95;47.12;99807.00;4879458;29;20109;-84
2022/09/21 11:05:44;;;;;;;4.35;3.20;;;;;;;17.53;48.84;99771.78;4862273;29;20513;-85
2022/09/21 11:09:23;;;;;;;4.65;3.00;;;;;;;17.88;49.13;99815.13;4847990;29;20041;-89
2022/09/21 11:12:27;;;;;;;5.28;3.08;;;;;;;18.14;49.16;99818.56;4862341;29;20053;-87
2022/09/21 11:15:39;;;;;;;5.55;3.25;;;;;;;17.98;49.19;99794.63;4866885;29;20073;-87
2022/09/21 11:18:39;;;;;;;4.97;3.05;;;;;;;17.99;49.13;99777.91;4835727;29;20068;-88
2022/09/21 11:21:45;;;;;;;;;;;;;;;;;;;;;
2022/09/21 11:24:30;;;;;;;5.43;2.97;;;;;;;17.97;49.28;99813.94;4864845;29;20127;-86
2022/09/21 11:27:05;;;;;;;4.00;3.30;;;;;;;17.93;49.86;99817.63;4849434;29;20107;-86
2022/09/21 11:29:57;;;;;;;5.05;3.35;;;;;;;17.91;50.08;99801.03;4877847;29;20056;-87
2022/09/21 11:32:43;;;;;;;;;;;;;;;18.10;49.95;99813.47;4858244;29;20060;-87
2022/09/21 11:35:34;;;;;;;6.50;3.85;;;;;;;17.99;49.94;99809.47;4848962;29;19924;-85
2022/09/21 11:38:38;;;;;;;5.45;3.58;;;;;;;17.84;50.57;99794.28;4870858;29;20045;-85
2022/09/21 11:41:37;;;;;;;7.78;4.55;;;;;;;18.01;50.37;99818.19;4827558;29;20137;-85
2022/09/21 11:44:19;;;;;;;9.00;4.47;;;;;;;17.52;50.80;99783.22;4858124;29;20060;-86
2022/09/21 11:47:17;;;;;;;9.45;5.13;;;;;;;17.65;51.19;99804.66;4856772;29;20053;-85
2022/09/21 11:50:05;;;;;;;9.13;6.05;;;;;;;17.50;51.51;99796.41;4837553;29;20049;-87
2022/09/21 11:52:52;;;;;;;8.15;5.20;;;;;;;17.47;51.34;99804.44;4853844;29;20041;-83
2022/09/21 11:55:51;;;;;;;6.18;4.00;;;;;;;17.34;51.53;99806.66;4872587;29;20061;-84
2022/09/21 11:58:40;;;;;;;8.02;6.03;;;;;;;16.96;51.39;99772.97;4843573;29;20072;-83
2022/09/21 12:01:36;;;;;;;4.07;3.25;;;;;;;17.08;52.34;99782.19;4854916;29;20057;-85
2022/09/21 12:04:23;;;;;;;4.75;3.88;;;;;;;16.95;52.26;99765.09;4858343;29;20471;-86
2022/09/21 12:07:05;;;;;;;12.45;8.23;;;;;;;16.83;52.16;99737.47;4864454;29;20399;-85
2022/09/21 12:10:00;;;;;;;13.35;7.30;;;;;;;17.22;52.17;99800.06;4856363;29;20046;-86
2022/09/21 12:12:39;;;;;;;9.38;5.70;;;;;;;16.87;52.18;99770.63;4871401;29;20128;-86
2022/09/21 12:15:12;;;;;;;6.45;5.07;;;;;;;17.12;52.82;99802.16;4861383;29;20037;-86
2022/09/21 12:18:11;;;;;;;7.20;4.20;;;;;;;17.16;52.70;99795.91;4844742;29;20096;-84
2022/09/21 12:20:58;;;;;;;6.32;4.20;;;;;;;17.24;52.84;99789.50;4854218;29;20081;-85
2022/09/21 12:24:03;;;;;;;7.25;4.40;;;;;;;17.29;52.59;99798.09;4858922;29;20120;-86
2022/09/21 12:26:46;;;;;;;7.90;5.00;;;;;;;16.99;52.87;99743.09;4860253;29;20042;-84
2022/09/21 12:29:35;;;;;;;6.13;3.45;;;;;;;17.25;52.73;99789.44;4853866;29;20041;-88
2022/09/21 12:32:11;;;;;;;3.90;2.90;;;;;;;17.12;52.60;99799.53;4859853;29;20054;-87
2022/09/21 12:34:41;;;;;;;4.15;2.92;;;;;;;16.42;52.50;99711.78;4842942;29;20076;-89
2022/09/21 12:37:30;;;;;;;;;;;;;;;16.76;52.66;99791.19;4865877;29;20064;-83
2022/09/21 12:40:21;;;;;;;4.03;2.70;;;;;;;16.56;52.78;99771.69;4857582;29;19924;-84
2022/09/21 12:43:09;;;;;;;6.93;2.80;;;;;;;16.63;52.94;99788.13;4863549;29;20049;-85
2022/09/21 12:45:46;;;;;;;3.55;2.53;;;;;;;16.55;52.69;99775.25;4861310;29;20045;-86
2022/09/21 12:48:28;;;;;;;6.40;2.85;;;;;;;16.54;52.27;99792.75;4875825;29;20044;-85
2022/09/21 12:51:16;;;;;;;3.53;2.55;;;;;;;16.15;52.92;99760.78;4863802;29;20045;-84
2022/09/21 12:53:55;;;;;;;6.90;4.03;;;;;;;15.72;52.88;99711.38;4847537;29;20140;-85
2022/09/21 12:56:25;;;;;;;;;;;;;;;16.19;53.10;99791.28;4883382;29;20044;-84
2022/09/21 12:59:05;;;;;;;5.65;2.83;;;;;;;16.21;53.93;99800.84;4877549;29;19924;-85
2022/09/21 13:01:44;;;;;;;6.65;2.80;;;;;;;16.27;53.86;99791.91;4863120;29;20068;-84
2022/09/21 13:04:40;;;;;;;5.07;2.63;;;;;;;16.26;53.76;99791.03;4862262;29;20137;-83
2022/09/21 13:07:34;;;;;;;4.63;2.80;;;;;;;16.31;53.88;99792.66;4879013;29;20137;-86
2022/09/21 13:10:13;;;;;;;4.13;2.70;;;;;;;16.26;53.10;99796.28;4880478;29;20125;-84
2022/09/21 13:12:46;;;;;;;7.03;3.30;;;;;;;15.90;54.00;99769.44;4843810;29;20053;-86
2022/09/21 13:15:20;;;;;;;5.15;3.50;;;;;;;15.88;54.54;99758.19;4857009;29;20112;-84
2022/09/21 13:17:58;;;;;;;4.97;3.10;;;;;;;16.05;54.33;99769.00;4876783;29;20045;-85
2022/09/21 13:20:33;;;;;;;5.15;3.40;;;;;;;15.79;54.70;99743.53;4850472;29;20052;-85
2022/09/21 13:23:01;;;;;;;5.00;3.17;;;;;;;16.09;54.97;99798.59;4860366;29;20073;-84
2022/09/21 13:25:31;;;;;;;7.63;3.08;;;;;;;15.98;55.01;99779.72;4870798;29;20130;-86
2022/09/21 13:28:22;;;;;;;5.18;3.00;;;;;;;16.02;55.03;99790.06;4880625;29;20040;-85
2022/09/21 13:31:15;;;;;;;8.35;3.22;;;;;;;16.04;55.24;99790.00;4866405;29;20445;-85
2022/09/21 13:34:20;;;;;;;6.30;3.00;;;;;;;15.98;55.24;99775.31;4847304;29;20050;-87
2022/09/21 13:37:16;;;;;;;6.95;3.40;;;;;;;16.05;55.16;99782.09;4850011;29;20109;-87
2022/09/21 13:40:15;;;;;;;5.80;3.00;;;;;;;15.94;55.55;99771.94;4857203;29;20131;-87
2022/09/21 13:43:10;;;;;;;4.38;3.00;;;;;;;15.83;55.17;99750.41;4832813;29;20064;-86
2022/09/21 13:45:37;;;;;;;5.78;3.50;;;;;;;16.03;55.51;99781.28;4852763;29;20052;-87
2022/09/21 13:48:17;;;;;;;5.43;3.42;;;;;;;15.91;55.68;99752.81;4863336;29;20049;-85
2022/09/21 13:50:48;;;;;;;8.15;4.05;;;;;;;16.02;55.55;99763.84;4880948;29;20041;-86